Terminal Aerodrome Forecast
Issued by NWS

Home | Current Version | Previous Version | Text Only | Print | Product List | Glossary On
Versions: 1 2 3 4 5 6 7 8 9 10 11 12 13 14 15
000
FTUS45 KABQ 280521
TAFFMN
TAF
KFMN 280521Z 2806/2906 14007KT P6SM VCSH BKN050 OVC080
     FM281000 09006KT P6SM VCSH OVC035
     FM281500 29012G20KT P6SM VCSH BKN040 BKN070
     FM282000 31025G35KT P6SM VCSH BKN050 BKN070=

USA.gov is the U.S. government's official web portal to all federal, state and local government web resources and services.